Time;durP1;ratioP1;P1;durP2;ratioP2;P2;SDS_P1;SDS_P2;PMS_P1;PMS_P2;Temp;Humidity;BMP_temperature;BMP_pressure;BME280_temperature;BME280_humidity;BME280_pressure;Samples;Min_cycle;Max_cycle;Signal;HPM_P1;HPM_P2
2023/07/04 00:01:37;;;;;;;3.60;1.63;;;;;;;;;;5001044;28;20191;-80
2023/07/04 00:04:05;;;;;;;4.15;1.90;;;;;;;;;;5001005;28;20042;-81
2023/07/04 00:06:36;;;;;;;2.97;1.42;;;;;;;;;;5000714;28;20062;-81
2023/07/04 00:09:02;;;;;;;3.67;1.70;;;;;;;;;;5000386;28;20041;-82
2023/07/04 00:11:29;;;;;;;3.03;1.70;;;;;;;;;;5000887;28;20218;-81
2023/07/04 00:13:55;;;;;;;2.72;1.50;;;;;;;;;;5001000;28;20033;-80
2023/07/04 00:16:21;;;;;;;2.75;1.60;;;;;;;;;;5000732;28;20042;-81
2023/07/04 00:18:46;;;;;;;2.60;1.42;;;;;;;;;;5000947;28;20041;-81
2023/07/04 00:21:14;;;;;;;2.95;1.77;;;;;;;;;;5000673;28;20030;-81
2023/07/04 00:23:48;;;;;;;2.40;1.52;;;;;;;;;;5000495;28;20339;-81
2023/07/04 00:26:17;;;;;;;3.40;1.63;;;;;;;;;;5000614;28;20057;-81
2023/07/04 00:28:43;;;;;;;2.60;1.70;;;;;;;;;;5000791;28;20034;-77
2023/07/04 00:31:10;;;;;;;2.33;1.40;;;;;;;;;;5000747;28;20022;-81
2023/07/04 00:33:36;;;;;;;3.20;1.73;;;;;;;;;;5000610;28;20079;-77
2023/07/04 00:36:07;;;;;;;3.22;1.65;;;;;;;;;;5000676;28;20022;-81
2023/07/04 00:38:38;;;;;;;2.30;1.40;;;;;;;;;;5002132;28;20054;-78
2023/07/04 00:41:13;;;;;;;2.88;1.25;;;;;;;;;;5004571;28;20036;-80
2023/07/04 00:44:00;;;;;;;2.65;1.10;;;;;;;;;;5004442;28;20229;-81
2023/07/04 00:46:36;;;;;;;2.53;1.45;;;;;;;;;;5004444;28;20369;-81
2023/07/04 00:49:03;;;;;;;2.13;1.25;;;;;;;;;;5004468;28;20230;-74
2023/07/04 00:51:31;;;;;;;2.17;1.20;;;;;;;;;;5004401;28;20034;-81
2023/07/04 00:53:57;;;;;;;2.92;1.77;;;;;;;;;;5004172;28;20097;-72
2023/07/04 00:56:25;;;;;;;7.15;1.58;;;;;;;;;;5004201;28;20034;-81
2023/07/04 00:58:53;;;;;;;3.30;1.67;;;;;;;;;;5004404;28;20034;-81
2023/07/04 01:01:19;;;;;;;2.33;1.50;;;;;;;;;;5004284;28;20351;-74
2023/07/04 01:03:46;;;;;;;4.22;1.75;;;;;;;;;;5004413;28;20030;-80
2023/07/04 01:06:24;;;;;;;4.13;1.42;;;;;;;;;;4998394;28;20029;-81
2023/07/04 01:08:56;;;;;;;3.50;1.65;;;;;;;;;;4992514;28;20034;-77
2023/07/04 01:11:29;;;;;;;3.08;1.58;;;;;;;;;;4992613;28;20035;-81
2023/07/04 01:13:55;;;;;;;4.00;1.52;;;;;;;;;;4992599;28;20033;-81
2023/07/04 01:16:21;;;;;;;3.97;1.80;;;;;;;;;;4992175;28;20042;-81
2023/07/04 01:18:52;;;;;;;4.65;1.60;;;;;;;;;;4992477;28;20034;-81
2023/07/04 01:21:21;;;;;;;1.85;1.20;;;;;;;;;;4992443;28;20026;-82
2023/07/04 01:24:02;;;;;;;3.13;1.42;;;;;;;;;;4994439;28;20030;-82
2023/07/04 01:26:37;;;;;;;3.13;1.60;;;;;;;;;;5003844;28;20230;-81
2023/07/04 01:29:06;;;;;;;3.35;1.40;;;;;;;;;;5003605;28;20080;-81
2023/07/04 01:31:35;;;;;;;3.53;2.10;;;;;;;;;;5003632;28;20026;-81
2023/07/04 01:34:02;;;;;;;3.40;1.55;;;;;;;;;;5019014;28;20046;-81
2023/07/04 01:36:30;;;;;;;3.17;1.65;;;;;;;;;;5003526;28;20037;-73
2023/07/04 01:38:56;;;;;;;4.63;1.65;;;;;;;;;;5003326;28;20054;-81
2023/07/04 01:41:24;;;;;;;4.30;1.70;;;;;;;;;;5003713;28;20172;-82
2023/07/04 01:44:01;;;;;;;4.18;1.48;;;;;;;;;;5003500;28;20056;-78
2023/07/04 01:46:27;;;;;;;3.05;1.60;;;;;;;;;;5003667;28;20018;-82
2023/07/04 01:48:52;;;;;;;4.10;1.45;;;;;;;;;;5002812;28;20036;-82
2023/07/04 01:51:47;;;;;;;3.08;1.45;;;;;;;;;;5003276;28;20037;-83
2023/07/04 01:54:17;;;;;;;2.92;1.45;;;;;;;;;;5006854;28;20480;-84
2023/07/04 01:56:45;;;;;;;3.83;1.67;;;;;;;;;;5003256;28;20080;-81
2023/07/04 01:59:10;;;;;;;3.25;1.20;;;;;;;;;;5003126;28;20018;-79
2023/07/04 02:01:36;;;;;;;3.35;1.45;;;;;;;;;;5003254;28;20030;-82
2023/07/04 02:04:01;;;;;;;3.65;1.52;;;;;;;;;;5003183;28;20101;-82
2023/07/04 02:06:27;;;;;;;2.42;1.50;;;;;;;;;;5003085;28;20094;-75
2023/07/04 02:08:53;;;;;;;2.10;1.20;;;;;;;;;;5002344;28;20053;-83
2023/07/04 02:11:19;;;;;;;3.08;1.55;;;;;;;;;;4997936;28;20062;-82
2023/07/04 02:13:44;;;;;;;5.53;1.60;;;;;;;;;;4995636;28;20023;-83
2023/07/04 02:16:09;;;;;;;3.60;1.67;;;;;;;;;;5001453;28;20014;-78
2023/07/04 02:18:35;;;;;;;2.92;1.42;;;;;;;;;;5002804;28;20038;-82
2023/07/04 02:21:00;;;;;;;5.20;1.38;;;;;;;;;;5002841;28;20077;-82
2023/07/04 02:23:26;;;;;;;2.47;1.40;;;;;;;;;;5002538;28;20034;-82
2023/07/04 02:25:54;;;;;;;2.40;1.23;;;;;;;;;;5002739;28;20216;-82
2023/07/04 02:28:20;;;;;;;2.42;1.55;;;;;;;;;;5002433;28;20261;-82
2023/07/04 02:30:55;;;;;;;3.55;1.70;;;;;;;;;;5002739;28;20030;-82
2023/07/04 02:33:21;;;;;;;1.90;1.23;;;;;;;;;;5002085;28;20047;-77
2023/07/04 02:35:48;;;;;;;7.38;1.40;;;;;;;;;;5002514;28;20535;-83
2023/07/04 02:38:13;;;;;;;2.17;1.48;;;;;;;;;;5002138;28;20084;-84
2023/07/04 02:40:45;;;;;;;2.33;1.45;;;;;;;;;;5002598;28;20266;-84
2023/07/04 02:43:11;;;;;;;2.60;1.50;;;;;;;;;;5000513;28;20411;-84
2023/07/04 02:45:38;;;;;;;3.20;1.50;;;;;;;;;;5001452;28;20318;-84
2023/07/04 02:48:04;;;;;;;2.17;1.20;;;;;;;;;;5000089;28;20038;-81
2023/07/04 02:50:29;;;;;;;3.42;1.42;;;;;;;;;;5002200;28;20098;-77
2023/07/04 02:52:54;;;;;;;10.90;1.30;;;;;;;;;;4998622;28;20222;-82
2023/07/04 02:55:20;;;;;;;2.30;1.30;;;;;;;;;;5002426;28;20094;-84
2023/07/04 02:57:46;;;;;;;2.83;1.52;;;;;;;;;;5002047;28;20334;-83
2023/07/04 03:00:12;;;;;;;3.35;1.50;;;;;;;;;;5000002;28;20469;-79
2023/07/04 03:02:37;;;;;;;2.90;1.45;;;;;;;;;;4999503;28;20246;-83
2023/07/04 03:05:03;;;;;;;2.30;1.38;;;;;;;;;;5002152;28;20105;-83
2023/07/04 03:07:28;;;;;;;3.03;1.20;;;;;;;;;;4999895;28;20053;-80
2023/07/04 03:09:54;;;;;;;3.15;1.30;;;;;;;;;;5001916;28;20057;-83
2023/07/04 03:12:19;;;;;;;4.00;1.38;;;;;;;;;;5007167;28;20060;-83
2023/07/04 03:14:45;;;;;;;1.55;1.10;;;;;;;;;;5021504;28;20026;-84
2023/07/04 03:17:10;;;;;;;3.00;1.40;;;;;;;;;;5020034;28;20022;-83
2023/07/04 03:19:35;;;;;;;3.03;1.35;;;;;;;;;;5021188;28;20030;-83
2023/07/04 03:22:01;;;;;;;4.35;1.30;;;;;;;;;;5021037;28;20030;-84
2023/07/04 03:24:26;;;;;;;3.45;1.55;;;;;;;;;;5021289;28;20030;-83
2023/07/04 03:26:52;;;;;;;3.47;1.38;;;;;;;;;;5021230;28;20203;-84
2023/07/04 03:29:18;;;;;;;3.30;1.40;;;;;;;;;;5020913;28;20029;-84
2023/07/04 03:31:43;;;;;;;2.55;1.38;;;;;;;;;;5021311;28;20101;-84
2023/07/04 03:34:09;;;;;;;2.25;1.40;;;;;;;;;;5020749;28;20061;-83
2023/07/04 03:36:34;;;;;;;4.15;1.60;;;;;;;;;;5021164;28;20034;-84
2023/07/04 03:39:00;;;;;;;2.80;1.40;;;;;;;;;;5020442;28;20195;-84
2023/07/04 03:41:25;;;;;;;2.35;1.42;;;;;;;;;;5021076;28;20026;-84
2023/07/04 03:43:51;;;;;;;2.45;1.38;;;;;;;;;;5020911;28;20029;-83
2023/07/04 03:46:16;;;;;;;2.08;1.30;;;;;;;;;;5021144;28;20025;-80
2023/07/04 03:48:42;;;;;;;2.97;1.45;;;;;;;;;;5020608;28;20218;-84
2023/07/04 03:51:08;;;;;;;3.55;1.73;;;;;;;;;;5020862;28;20033;-83
2023/07/04 03:53:37;;;;;;;3.47;1.70;;;;;;;;;;5020099;28;20081;-84
2023/07/04 03:56:09;;;;;;;2.50;1.40;;;;;;;;;;5020987;28;20076;-80
2023/07/04 03:58:34;;;;;;;2.85;1.50;;;;;;;;;;5020516;28;20025;-83
2023/07/04 04:01:01;;;;;;;3.45;1.38;;;;;;;;;;5020644;28;20080;-73
2023/07/04 04:03:26;;;;;;;2.35;1.35;;;;;;;;;;5019668;28;20508;-84
2023/07/04 04:05:53;;;;;;;2.85;1.30;;;;;;;;;;5020771;28;20318;-83
2023/07/04 04:08:19;;;;;;;2.97;1.45;;;;;;;;;;5020176;28;20037;-84
2023/07/04 04:10:47;;;;;;;2.25;1.30;;;;;;;;;;5020605;28;20026;-83
2023/07/04 04:13:12;;;;;;;2.40;1.30;;;;;;;;;;5020377;28;20065;-83
2023/07/04 04:15:38;;;;;;;3.85;1.50;;;;;;;;;;5020581;28;20408;-83
2023/07/04 04:18:03;;;;;;;2.15;1.38;;;;;;;;;;5020392;28;20037;-83
2023/07/04 04:20:29;;;;;;;2.60;1.60;;;;;;;;;;5020441;28;20022;-83
2023/07/04 04:22:54;;;;;;;1.98;1.08;;;;;;;;;;5020251;28;20041;-76
2023/07/04 04:25:20;;;;;;;3.30;1.85;;;;;;;;;;5020371;28;20084;-83
2023/07/04 04:27:48;;;;;;;2.03;1.20;;;;;;;;;;5020397;28;20035;-82
2023/07/04 04:30:14;;;;;;;4.20;1.40;;;;;;;;;;5019976;28;20115;-84
2023/07/04 04:32:40;;;;;;;2.30;1.35;;;;;;;;;;5020093;28;20033;-83
2023/07/04 04:35:10;;;;;;;2.15;1.35;;;;;;;;;;5020204;28;20405;-83
2023/07/04 04:37:36;;;;;;;3.95;1.67;;;;;;;;;;5020126;28;20137;-83
2023/07/04 04:40:02;;;;;;;2.92;1.40;;;;;;;;;;5019972;28;20057;-83
2023/07/04 04:42:28;;;;;;;3.25;1.60;;;;;;;;;;5019046;28;20355;-83
2023/07/04 04:44:53;;;;;;;3.10;1.42;;;;;;;;;;5020234;28;20033;-84
2023/07/04 04:47:23;;;;;;;1.88;1.20;;;;;;;;;;5020244;28;20093;-84
2023/07/04 04:49:50;;;;;;;2.35;1.55;;;;;;;;;;5019859;28;20042;-83
2023/07/04 04:52:19;;;;;;;3.03;1.52;;;;;;;;;;5019893;28;20080;-83
2023/07/04 04:54:45;;;;;;;3.92;1.73;;;;;;;;;;5020287;28;20072;-83
2023/07/04 04:57:12;;;;;;;4.18;1.50;;;;;;;;;;5020098;28;20093;-84
2023/07/04 04:59:37;;;;;;;2.50;1.80;;;;;;;;;;5014386;28;20030;-82
2023/07/04 05:02:03;;;;;;;1.65;1.20;;;;;;;;;;5015042;28;20021;-83
2023/07/04 05:04:28;;;;;;;2.88;1.38;;;;;;;;;;5019903;28;20034;-83
2023/07/04 05:06:53;;;;;;;2.35;1.30;;;;;;;;;;5019824;28;20045;-84
2023/07/04 05:09:20;;;;;;;2.25;1.33;;;;;;;;;;5019700;28;20029;-84
2023/07/04 05:11:45;;;;;;;2.95;1.63;;;;;;;;;;5019311;28;20050;-76
2023/07/04 05:14:12;;;;;;;1.98;1.40;;;;;;;;;;5019898;28;20072;-83
2023/07/04 05:16:37;;;;;;;3.50;1.75;;;;;;;;;;5019950;28;20037;-82
2023/07/04 05:19:02;;;;;;;1.98;1.15;;;;;;;;;;5016992;28;20038;-81
2023/07/04 05:21:28;;;;;;;2.35;1.38;;;;;;;;;;5019957;28;20026;-82
2023/07/04 05:23:53;;;;;;;5.22;1.45;;;;;;;;;;5019500;28;20025;-85
2023/07/04 05:26:24;;;;;;;3.45;1.30;;;;;;;;;;5023499;28;20430;-76
2023/07/04 05:28:52;;;;;;;1.98;1.42;;;;;;;;;;5023059;28;20032;-83
2023/07/04 05:31:20;;;;;;;2.60;1.45;;;;;;;;;;5023429;28;20032;-81
2023/07/04 05:33:46;;;;;;;2.55;1.35;;;;;;;;;;5023284;28;20057;-76
2023/07/04 05:36:24;;;;;;;2.38;1.30;;;;;;;;;;5023282;28;20049;-80
2023/07/04 05:38:53;;;;;;;3.47;1.58;;;;;;;;;;5022722;28;20029;-83
2023/07/04 05:41:25;;;;;;;1.88;1.25;;;;;;;;;;5020659;28;20096;-83
2023/07/04 05:43:51;;;;;;;2.55;1.25;;;;;;;;;;5021086;28;20037;-85
2023/07/04 05:46:17;;;;;;;3.08;1.45;;;;;;;;;;5023118;28;20037;-77
2023/07/04 05:48:43;;;;;;;2.80;1.67;;;;;;;;;;5021828;28;20032;-74
2023/07/04 05:51:11;;;;;;;3.30;1.70;;;;;;;;;;5022703;28;20384;-83
2023/07/04 05:53:38;;;;;;;2.85;1.48;;;;;;;;;;5022813;28;20093;-82
2023/07/04 05:56:07;;;;;;;2.72;1.50;;;;;;;;;;5022730;28;20026;-84
2023/07/04 05:58:34;;;;;;;2.35;1.35;;;;;;;;;;5022689;28;20041;-85
2023/07/04 06:01:16;;;;;;;3.75;1.55;;;;;;;;;;5020979;28;20493;-84
2023/07/04 06:03:43;;;;;;;2.53;1.50;;;;;;;;;;5021024;28;20037;-84
2023/07/04 06:06:18;;;;;;;1.80;1.20;;;;;;;;;;5022647;28;20022;-85
2023/07/04 06:08:44;;;;;;;1.52;1.08;;;;;;;;;;5021202;28;20040;-85
2023/07/04 06:11:10;;;;;;;1.77;1.00;;;;;;;;;;5019186;28;20093;-83
2023/07/04 06:13:35;;;;;;;3.00;1.38;;;;;;;;;;5022571;28;20302;-78
2023/07/04 06:16:03;;;;;;;2.25;1.60;;;;;;;;;;5022426;28;20025;-84
2023/07/04 06:18:28;;;;;;;2.60;1.50;;;;;;;;;;5019781;28;20123;-86
2023/07/04 06:21:04;;;;;;;2.13;0.98;;;;;;;;;;5022261;28;20258;-83
2023/07/04 06:23:30;;;;;;;4.22;1.35;;;;;;;;;;5018477;28;20029;-88
2023/07/04 06:25:56;;;;;;;2.40;1.40;;;;;;;;;;5015821;28;20208;-79
2023/07/04 06:28:22;;;;;;;2.88;1.63;;;;;;;;;;5011866;28;20379;-79
2023/07/04 06:30:47;;;;;;;2.40;1.40;;;;;;;;;;5013392;28;20057;-79
2023/07/04 06:33:12;;;;;;;3.22;1.40;;;;;;;;;;5012193;28;20515;-80
2023/07/04 06:35:42;;;;;;;4.45;1.50;;;;;;;;;;5015340;28;20025;-79
2023/07/04 06:38:11;;;;;;;6.57;2.22;;;;;;;;;;5017281;28;20053;-80
2023/07/04 06:40:37;;;;;;;2.10;1.38;;;;;;;;;;5018735;28;20561;-78
2023/07/04 06:43:04;;;;;;;3.95;1.70;;;;;;;;;;5022046;28;20041;-77
2023/07/04 06:45:31;;;;;;;2.55;1.05;;;;;;;;;;5018301;28;20037;-80
2023/07/04 06:47:57;;;;;;;3.00;1.50;;;;;;;;;;5012065;28;20018;-78
2023/07/04 06:50:22;;;;;;;2.28;1.48;;;;;;;;;;5013566;28;20033;-83
2023/07/04 06:52:48;;;;;;;2.40;1.33;;;;;;;;;;5010200;28;20022;-80
2023/07/04 06:55:13;;;;;;;2.08;1.30;;;;;;;;;;5015554;28;20433;-80
2023/07/04 06:57:38;;;;;;;2.33;1.23;;;;;;;;;;5011007;28;20626;-80
2023/07/04 07:00:05;;;;;;;2.63;1.70;;;;;;;;;;5016105;28;20045;-80
2023/07/04 07:02:31;;;;;;;4.70;1.55;;;;;;;;;;5014623;28;20022;-82
2023/07/04 07:04:56;;;;;;;3.83;1.98;;;;;;;;;;5019622;28;20029;-79
2023/07/04 07:07:22;;;;;;;4.63;1.67;;;;;;;;;;5020582;28;20018;-83
2023/07/04 07:09:48;;;;;;;2.22;1.40;;;;;;;;;;5018480;28;20033;-83
2023/07/04 07:12:13;;;;;;;4.38;1.48;;;;;;;;;;5018079;28;20026;-83
2023/07/04 07:14:39;;;;;;;2.03;1.17;;;;;;;;;;5016096;28;20026;-82
2023/07/04 07:17:06;;;;;;;2.22;1.38;;;;;;;;;;5007405;28;20026;-83
2023/07/04 07:19:32;;;;;;;1.83;1.02;;;;;;;;;;4996985;28;20022;-78
2023/07/04 07:22:00;;;;;;;2.20;1.40;;;;;;;;;;4988926;28;20041;-84
2023/07/04 07:24:26;;;;;;;5.63;1.73;;;;;;;;;;4989500;28;20394;-82
2023/07/04 07:26:52;;;;;;;3.22;1.75;;;;;;;;;;4993250;28;20490;-82
2023/07/04 07:29:17;;;;;;;5.85;1.80;;;;;;;;;;4994178;28;20089;-84
2023/07/04 07:31:42;;;;;;;3.35;1.48;;;;;;;;;;5004923;28;20113;-80
2023/07/04 07:34:08;;;;;;;3.25;1.55;;;;;;;;;;4991517;28;20326;-81
2023/07/04 07:36:37;;;;;;;4.82;1.58;;;;;;;;;;4998394;28;20322;-75
2023/07/04 07:39:04;;;;;;;4.97;1.73;;;;;;;;;;4993163;28;20455;-82
2023/07/04 07:41:45;;;;;;;3.38;1.20;;;;;;;;;;4991619;28;20098;-76
2023/07/04 07:44:10;;;;;;;;;;;;;;;;;;5000342;28;20030;-75
2023/07/04 07:46:36;;;;;;;3.03;1.17;;;;;;;;;;4998634;28;19917;-74
2023/07/04 07:49:02;;;;;;;2.47;1.48;;;;;;;;;;4998484;28;20370;-73
2023/07/04 07:51:31;;;;;;;2.88;1.33;;;;;;;;;;4998157;28;20030;-75
2023/07/04 07:54:00;;;;;;;3.55;1.40;;;;;;;;;;4998268;28;20325;-74
2023/07/04 07:56:31;;;;;;;4.43;1.60;;;;;;;;;;4998227;28;20038;-74
2023/07/04 07:58:56;;;;;;;1.88;1.13;;;;;;;;;;4998524;28;20022;-75
2023/07/04 08:01:25;;;;;;;2.30;1.55;;;;;;;;;;4998505;28;20045;-74
2023/07/04 08:03:50;;;;;;;2.20;1.27;;;;;;;;;;5000604;28;20326;-74
2023/07/04 08:06:43;;;;;;;3.40;1.48;;;;;;;;;;4999711;28;20109;-75
2023/07/04 08:09:13;;;;;;;3.20;1.20;;;;;;;;;;4999838;28;20096;-74
2023/07/04 08:11:39;;;;;;;2.05;1.38;;;;;;;;;;5000627;28;20034;-74
2023/07/04 08:14:05;;;;;;;2.95;1.58;;;;;;;;;;4998387;28;20084;-74
2023/07/04 08:16:42;;;;;;;3.17;1.60;;;;;;;;;;5000189;28;20034;-75
2023/07/04 08:19:08;;;;;;;2.22;1.30;;;;;;;;;;5000123;28;20029;-75
2023/07/04 08:21:33;;;;;;;2.95;1.50;;;;;;;;;;4999342;28;20250;-74
2023/07/04 08:23:59;;;;;;;2.38;1.55;;;;;;;;;;5000444;28;20030;-74
2023/07/04 08:26:26;;;;;;;3.95;1.40;;;;;;;;;;5000525;28;20052;-75
2023/07/04 08:28:56;;;;;;;2.17;1.48;;;;;;;;;;5000622;28;20056;-73
2023/07/04 08:31:23;;;;;;;2.58;1.35;;;;;;;;;;5015539;28;20034;-75
2023/07/04 08:33:49;;;;;;;2.88;1.60;;;;;;;;;;4999456;28;20066;-74
2023/07/04 08:36:17;;;;;;;3.50;1.60;;;;;;;;;;4998458;28;20191;-75
2023/07/04 08:38:45;;;;;;;4.65;1.58;;;;;;;;;;5000150;28;20022;-75
2023/07/04 08:41:23;;;;;;;2.03;1.25;;;;;;;;;;5000041;28;20030;-75
2023/07/04 08:44:02;;;;;;;2.83;1.35;;;;;;;;;;5000537;28;20040;-75
2023/07/04 08:46:35;;;;;;;4.03;1.58;;;;;;;;;;4998134;28;20030;-75
2023/07/04 08:49:07;;;;;;;2.67;1.40;;;;;;;;;;5000465;28;20218;-74
2023/07/04 08:51:42;;;;;;;2.95;1.67;;;;;;;;;;4996719;28;20034;-74
2023/07/04 08:54:11;;;;;;;3.63;1.27;;;;;;;;;;4997318;28;20042;-75
2023/07/04 08:56:38;;;;;;;2.38;1.52;;;;;;;;;;4999973;28;20038;-74
2023/07/04 08:59:37;;;;;;;2.75;1.52;;;;;;;;;;5001205;28;20034;-74
2023/07/04 09:02:40;;;;;;;3.15;1.80;;;;;;;;;;5004058;28;20030;-75
2023/07/04 09:05:17;;;;;;;3.58;1.58;;;;;;;;;;5002644;28;20338;-74
2023/07/04 09:07:57;;;;;;;2.38;1.40;;;;;;;;;;5003149;28;20529;-74
2023/07/04 09:10:35;;;;;;;2.75;1.58;;;;;;;;;;5004128;28;20226;-75
2023/07/04 09:13:04;;;;;;;4.13;1.50;;;;;;;;;;5003872;28;20258;-75
2023/07/04 09:15:35;;;;;;;3.10;1.48;;;;;;;;;;5004082;28;20046;-75
2023/07/04 09:18:34;;;;;;;1.83;1.25;;;;;;;;;;5003592;28;20042;-75
2023/07/04 09:21:11;;;;;;;7.10;2.00;;;;;;;;;;5003940;28;20085;-75
2023/07/04 09:23:38;;;;;;;3.95;1.80;;;;;;;;;;5003425;28;20054;-75
2023/07/04 09:26:09;;;;;;;2.63;1.55;;;;;;;;;;5002507;28;20045;-74
2023/07/04 09:28:37;;;;;;;3.10;1.60;;;;;;;;;;5003479;28;20029;-72
2023/07/04 09:31:03;;;;;;;4.10;1.30;;;;;;;;;;5001583;28;20049;-75
2023/07/04 09:33:29;;;;;;;2.10;1.23;;;;;;;;;;5002351;28;20234;-68
2023/07/04 09:35:58;;;;;;;2.40;1.38;;;;;;;;;;5001046;28;20034;-75
2023/07/04 09:38:24;;;;;;;2.95;1.55;;;;;;;;;;5003095;28;20054;-70
2023/07/04 09:40:52;;;;;;;3.15;1.70;;;;;;;;;;5003553;28;20018;-76
2023/07/04 09:43:27;;;;;;;1.95;1.10;;;;;;;;;;5003190;28;20040;-74
2023/07/04 09:46:21;;;;;;;2.47;1.38;;;;;;;;;;5003468;28;20325;-75
2023/07/04 09:48:47;;;;;;;2.42;1.55;;;;;;;;;;5016798;28;20361;-75
2023/07/04 09:51:23;;;;;;;2.55;1.42;;;;;;;;;;5003299;28;20027;-75
2023/07/04 09:53:49;;;;;;;2.60;1.35;;;;;;;;;;5002511;28;20022;-75
2023/07/04 09:56:26;;;;;;;3.13;1.10;;;;;;;;;;5002643;28;20247;-75
2023/07/04 09:59:13;;;;;;;4.95;1.50;;;;;;;;;;5003153;28;20094;-75
2023/07/04 10:01:48;;;;;;;1.85;1.25;;;;;;;;;;5003068;28;20026;-74
2023/07/04 10:04:24;;;;;;;2.22;1.45;;;;;;;;;;5000929;28;20326;-77
2023/07/04 10:06:52;;;;;;;2.30;0.95;;;;;;;;;;5000952;28;20173;-73
2023/07/04 10:09:20;;;;;;;2.53;1.05;;;;;;;;;;5002301;28;20041;-76
2023/07/04 10:11:48;;;;;;;2.33;1.45;;;;;;;;;;5001248;28;20084;-76
2023/07/04 10:14:16;;;;;;;2.95;1.75;;;;;;;;;;5002905;28;20026;-74
2023/07/04 10:16:50;;;;;;;2.38;1.27;;;;;;;;;;5002996;28;20022;-74
2023/07/04 10:19:19;;;;;;;2.50;1.15;;;;;;;;;;5001263;28;20317;-74
2023/07/04 10:21:48;;;;;;;3.53;1.50;;;;;;;;;;5002178;28;20090;-74
2023/07/04 10:24:25;;;;;;;2.33;1.33;;;;;;;;;;5014050;28;20026;-69
2023/07/04 10:26:54;;;;;;;3.05;1.60;;;;;;;;;;5002578;28;20105;-74
2023/07/04 10:29:31;;;;;;;3.17;1.42;;;;;;;;;;5002436;28;20104;-74
2023/07/04 10:32:02;;;;;;;2.30;1.35;;;;;;;;;;5000966;28;20314;-74
2023/07/04 10:34:28;;;;;;;2.33;1.48;;;;;;;;;;5000745;28;20062;-72
2023/07/04 10:36:56;;;;;;;5.28;1.60;;;;;;;;;;5001044;28;20466;-75
2023/07/04 10:39:25;;;;;;;4.40;1.50;;;;;;;;;;5002042;28;20366;-74
2023/07/04 10:42:07;;;;;;;2.13;1.30;;;;;;;;;;5002365;28;20015;-74
2023/07/04 10:44:34;;;;;;;2.83;1.42;;;;;;;;;;5014009;28;20113;-73
2023/07/04 10:47:09;;;;;;;2.88;1.52;;;;;;;;;;5001401;28;20034;-67
2023/07/04 10:49:43;;;;;;;2.20;1.33;;;;;;;;;;5002166;28;20061;-74
2023/07/04 10:52:16;;;;;;;2.45;1.38;;;;;;;;;;5001495;28;20502;-76
2023/07/04 10:54:41;;;;;;;2.45;1.27;;;;;;;;;;5000483;28;20049;-74
2023/07/04 10:57:39;;;;;;;2.70;1.20;;;;;;;;;;5002024;28;20053;-73
2023/07/04 11:00:26;;;;;;;4.00;1.42;;;;;;;;;;5017017;28;20073;-74
2023/07/04 11:03:06;;;;;;;1.92;1.25;;;;;;;;;;5001708;28;20030;-74
2023/07/04 11:05:40;;;;;;;2.17;1.42;;;;;;;;;;5001205;28;20102;-74
2023/07/04 11:08:15;;;;;;;2.80;1.52;;;;;;;;;;5000203;28;20030;-73
2023/07/04 11:10:42;;;;;;;4.40;1.70;;;;;;;;;;5001809;28;20041;-74
2023/07/04 11:13:14;;;;;;;2.90;1.45;;;;;;;;;;5001614;28;20026;-74
2023/07/04 11:15:42;;;;;;;2.15;1.23;;;;;;;;;;5001791;28;20026;-74
2023/07/04 11:18:13;;;;;;;2.47;1.45;;;;;;;;;;5001457;28;20033;-74
2023/07/04 11:21:04;;;;;;;2.30;1.48;;;;;;;;;;5001512;28;20029;-74
2023/07/04 11:23:53;;;;;;;3.53;1.90;;;;;;;;;;5000691;28;20318;-73
2023/07/04 11:26:21;;;;;;;5.00;1.90;;;;;;;;;;5000706;28;20235;-74
2023/07/04 11:29:07;;;;;;;2.20;1.45;;;;;;;;;;5001259;28;20335;-74
2023/07/04 11:31:34;;;;;;;3.65;1.50;;;;;;;;;;5001495;28;20045;-72
2023/07/04 11:34:03;;;;;;;6.15;1.98;;;;;;;;;;5001259;28;20037;-71
2023/07/04 11:36:30;;;;;;;2.80;1.55;;;;;;;;;;5001448;28;20018;-74
2023/07/04 11:39:05;;;;;;;2.88;1.30;;;;;;;;;;5001177;28;20078;-75
2023/07/04 11:41:42;;;;;;;3.72;1.85;;;;;;;;;;4999186;28;20038;-73
2023/07/04 11:44:22;;;;;;;2.92;1.40;;;;;;;;;;5001239;28;20082;-74
2023/07/04 11:47:00;;;;;;;7.88;1.35;;;;;;;;;;5001198;28;20065;-75
2023/07/04 11:49:27;;;;;;;3.78;1.55;;;;;;;;;;5000903;28;20334;-74
2023/07/04 11:52:06;;;;;;;1.73;1.20;;;;;;;;;;5000823;28;20046;-74
2023/07/04 11:54:31;;;;;;;2.90;1.50;;;;;;;;;;5000693;28;20026;-76
2023/07/04 11:56:57;;;;;;;2.20;1.40;;;;;;;;;;5000831;28;20094;-74
2023/07/04 11:59:24;;;;;;;2.65;1.30;;;;;;;;;;5000827;28;20608;-69
2023/07/04 12:01:55;;;;;;;2.25;1.30;;;;;;;;;;5000451;28;20030;-74
2023/07/04 12:04:35;;;;;;;3.38;1.73;;;;;;;;;;5000903;28;20222;-71
2023/07/04 12:07:04;;;;;;;2.05;1.17;;;;;;;;;;4999130;28;20069;-73
2023/07/04 12:09:45;;;;;;;3.25;1.55;;;;;;;;;;5000713;28;20049;-74
2023/07/04 12:12:31;;;;;;;2.83;1.75;;;;;;;;;;5000775;28;20416;-74
2023/07/04 12:15:09;;;;;;;1.85;1.20;;;;;;;;;;5000578;28;20053;-73
2023/07/04 12:17:40;;;;;;;3.20;1.55;;;;;;;;;;5000722;28;20022;-73
2023/07/04 12:20:13;;;;;;;2.95;1.70;;;;;;;;;;5000469;28;20049;-74
2023/07/04 12:23:00;;;;;;;3.80;1.60;;;;;;;;;;4997504;28;20076;-74
2023/07/04 12:25:47;;;;;;;5.35;1.40;;;;;;;;;;5000482;28;20030;-74
2023/07/04 12:28:14;;;;;;;3.28;1.80;;;;;;;;;;5015348;28;20030;-74
2023/07/04 12:30:56;;;;;;;4.78;1.77;;;;;;;;;;5000458;28;20432;-74
2023/07/04 12:33:23;;;;;;;4.68;1.70;;;;;;;;;;5001899;28;20065;-74
2023/07/04 12:35:54;;;;;;;2.10;1.17;;;;;;;;;;5004627;28;20052;-74
2023/07/04 12:38:23;;;;;;;3.08;1.75;;;;;;;;;;5003255;28;20269;-74
2023/07/04 12:40:49;;;;;;;3.80;1.80;;;;;;;;;;5004578;28;20030;-72
2023/07/04 12:43:17;;;;;;;3.03;1.80;;;;;;;;;;5003994;28;20040;-75
2023/07/04 12:45:46;;;;;;;2.55;1.52;;;;;;;;;;5004517;28;20069;-74
2023/07/04 12:48:13;;;;;;;3.05;1.80;;;;;;;;;;5004542;28;20057;-73
2023/07/04 12:50:48;;;;;;;3.53;1.80;;;;;;;;;;5004281;28;20062;-74
2023/07/04 12:53:17;;;;;;;3.20;1.83;;;;;;;;;;5001615;28;20073;-74
2023/07/04 12:55:44;;;;;;;4.10;1.83;;;;;;;;;;5004263;28;20046;-74
2023/07/04 12:58:12;;;;;;;7.00;1.70;;;;;;;;;;5004124;28;20034;-74
2023/07/04 13:01:02;;;;;;;3.17;1.38;;;;;;;;;;5004119;28;20025;-75
2023/07/04 13:03:29;;;;;;;2.58;1.58;;;;;;;;;;5003316;28;20034;-74
2023/07/04 13:05:55;;;;;;;3.42;1.60;;;;;;;;;;5003942;28;20086;-74
2023/07/04 13:08:26;;;;;;;2.78;1.30;;;;;;;;;;5003934;28;20101;-75
2023/07/04 13:10:54;;;;;;;4.72;1.90;;;;;;;;;;5001971;28;20038;-74
2023/07/04 13:13:31;;;;;;;2.47;1.50;;;;;;;;;;5004036;28;20026;-74
2023/07/04 13:16:21;;;;;;;2.92;1.70;;;;;;;;;;5003977;28;20110;-74
2023/07/04 13:18:47;;;;;;;3.97;1.53;;;;;;;;;;5003814;28;20421;-74
2023/07/04 13:21:27;;;;;;;3.40;1.40;;;;;;;;;;5003781;28;20654;-74
2023/07/04 13:23:52;;;;;;;2.92;1.60;;;;;;;;;;5001678;28;20034;-74
2023/07/04 13:26:20;;;;;;;2.35;1.50;;;;;;;;;;5018882;28;20036;-72
2023/07/04 13:28:49;;;;;;;2.83;1.60;;;;;;;;;;5003692;28;20030;-74
2023/07/04 13:31:19;;;;;;;5.70;1.48;;;;;;;;;;5003542;28;20026;-74
2023/07/04 13:33:45;;;;;;;1.85;1.30;;;;;;;;;;5003248;28;20050;-73
2023/07/04 13:36:18;;;;;;;3.55;1.48;;;;;;;;;;5003594;28;20557;-74
2023/07/04 13:38:44;;;;;;;2.30;1.52;;;;;;;;;;5002829;28;20225;-74
2023/07/04 13:41:10;;;;;;;3.28;1.50;;;;;;;;;;5003366;28;20394;-74
2023/07/04 13:43:37;;;;;;;2.75;1.40;;;;;;;;;;5003420;28;20034;-74
2023/07/04 13:46:03;;;;;;;1.67;1.20;;;;;;;;;;5002658;28;20210;-75
2023/07/04 13:48:28;;;;;;;3.95;1.48;;;;;;;;;;5003446;28;20041;-74
2023/07/04 13:50:57;;;;;;;3.58;1.40;;;;;;;;;;5001873;28;20273;-75
2023/07/04 13:53:23;;;;;;;2.88;1.50;;;;;;;;;;5002825;28;20038;-73
2023/07/04 13:55:50;;;;;;;3.58;1.50;;;;;;;;;;5003163;28;20034;-73
2023/07/04 13:58:15;;;;;;;3.80;2.15;;;;;;;;;;5002870;28;20034;-74
2023/07/04 14:00:41;;;;;;;3.85;1.60;;;;;;;;;;5003080;28;20058;-74
2023/07/04 14:03:07;;;;;;;2.45;1.50;;;;;;;;;;5001612;28;20234;-76
2023/07/04 14:05:39;;;;;;;5.18;1.60;;;;;;;;;;5003164;28;20314;-71
2023/07/04 14:08:07;;;;;;;4.32;1.90;;;;;;;;;;5002063;28;20034;-73
2023/07/04 14:10:33;;;;;;;3.83;1.42;;;;;;;;;;5001384;28;20042;-74
2023/07/04 14:13:00;;;;;;;4.60;1.75;;;;;;;;;;5002868;28;20277;-76
2023/07/04 14:15:25;;;;;;;3.45;1.70;;;;;;;;;;5002752;28;20026;-73
2023/07/04 14:17:51;;;;;;;3.50;1.70;;;;;;;;;;5001371;28;20026;-74
2023/07/04 14:20:17;;;;;;;3.50;1.70;;;;;;;;;;5001893;28;20038;-73
2023/07/04 14:22:42;;;;;;;3.10;1.67;;;;;;;;;;5002368;28;20061;-74
2023/07/04 14:25:08;;;;;;;2.75;1.58;;;;;;;;;;5002524;28;20026;-75
2023/07/04 14:27:37;;;;;;;3.85;1.70;;;;;;;;;;5002908;28;20026;-74
2023/07/04 14:30:04;;;;;;;2.78;1.38;;;;;;;;;;5002527;28;20038;-74
2023/07/04 14:32:33;;;;;;;3.17;1.52;;;;;;;;;;5002145;28;20077;-68
2023/07/04 14:34:58;;;;;;;2.55;1.40;;;;;;;;;;5002528;28;20057;-74
2023/07/04 14:37:24;;;;;;;2.50;1.58;;;;;;;;;;5002085;28;20233;-74
2023/07/04 14:39:54;;;;;;;4.53;1.80;;;;;;;;;;5002472;28;20034;-74
2023/07/04 14:42:20;;;;;;;2.58;1.65;;;;;;;;;;5002720;28;20045;-74
2023/07/04 14:44:47;;;;;;;3.63;1.70;;;;;;;;;;5002256;28;20277;-74
2023/07/04 14:47:13;;;;;;;3.45;1.70;;;;;;;;;;5002353;28;20036;-74
2023/07/04 14:49:38;;;;;;;2.28;1.50;;;;;;;;;;5002285;28;20106;-74
2023/07/04 14:52:04;;;;;;;4.03;1.63;;;;;;;;;;5001796;28;20034;-74
2023/07/04 14:54:30;;;;;;;3.17;1.77;;;;;;;;;;5000662;28;20093;-74
2023/07/04 14:56:56;;;;;;;4.90;2.03;;;;;;;;;;5000429;28;20077;-74